createdAt,value
2022-11-05T00:01:39.592Z,16.14
2022-11-05T00:05:01.229Z,16.21
2022-11-05T00:08:23.947Z,16.15
2022-11-05T00:11:43.013Z,16.07
2022-11-05T00:15:04.141Z,16.09
2022-11-05T00:18:07.837Z,16.04
2022-11-05T00:21:25.421Z,15.94
2022-11-05T00:24:46.296Z,15.96
2022-11-05T00:27:52.661Z,16.01
2022-11-05T00:31:01.798Z,15.97
2022-11-05T00:34:05.924Z,15.96
2022-11-05T00:37:09.684Z,15.97
2022-11-05T00:40:15.078Z,15.89
2022-11-05T00:43:37.318Z,15.65
2022-11-05T00:46:41.168Z,15.58
2022-11-05T00:49:43.830Z,15.73
2022-11-05T00:52:58.055Z,15.82
2022-11-05T00:56:02.093Z,15.78
2022-11-05T00:59:07.082Z,15.79
2022-11-05T01:02:10.850Z,15.85
2022-11-05T01:05:14.799Z,15.92
2022-11-05T01:08:21.650Z,15.79
2022-11-05T01:11:37.362Z,15.85
2022-11-05T01:14:42.713Z,15.87
2022-11-05T01:17:46.162Z,15.98
2022-11-05T01:20:50.567Z,15.94
2022-11-05T01:23:54.433Z,15.94
2022-11-05T01:26:58.122Z,16.02
2022-11-05T01:30:03.022Z,15.93
2022-11-05T01:33:07.324Z,15.97
2022-11-05T01:36:11.417Z,15.99
2022-11-05T01:39:15.265Z,15.76
2022-11-05T01:42:21.870Z,15.90
2022-11-05T01:45:28.460Z,15.91
2022-11-05T01:48:36.403Z,15.86
2022-11-05T01:51:40.673Z,15.94
2022-11-05T01:54:44.937Z,16.06
2022-11-05T01:57:48.868Z,16.17
2022-11-05T02:00:55.836Z,16.15
2022-11-05T02:04:02.558Z,16.22
2022-11-05T02:07:08.959Z,16.26
2022-11-05T02:10:15.621Z,16.25
2022-11-05T02:13:19.150Z,15.91
2022-11-05T02:16:37.706Z,15.94
2022-11-05T02:20:09.520Z,15.91
2022-11-05T02:23:45.265Z,16.02
2022-11-05T02:27:16.115Z,16.06
2022-11-05T02:30:43.590Z,15.85
2022-11-05T02:33:57.065Z,15.93
2022-11-05T02:37:14.304Z,15.98
2022-11-05T02:40:23.951Z,16.07
2022-11-05T02:43:38.081Z,16.02
2022-11-05T02:46:50.282Z,16.03
2022-11-05T02:50:02.463Z,16.00
2022-11-05T02:53:12.249Z,15.90
2022-11-05T02:56:21.441Z,15.76
2022-11-05T02:59:24.835Z,15.79
2022-11-05T03:02:30.183Z,15.79
2022-11-05T03:05:45.503Z,15.81
2022-11-05T03:09:09.217Z,15.93
2022-11-05T03:12:25.173Z,15.98
2022-11-05T03:15:43.099Z,15.92
2022-11-05T03:18:57.826Z,15.89
2022-11-05T03:22:06.217Z,16.01
2022-11-05T03:25:13.655Z,16.10
2022-11-05T03:28:22.381Z,16.10
2022-11-05T03:31:26.432Z,16.15
2022-11-05T03:34:36.983Z,16.22
2022-11-05T03:37:44.227Z,16.18
2022-11-05T03:40:52.874Z,15.85
2022-11-05T03:43:59.851Z,16.01
2022-11-05T03:47:07.230Z,16.12
2022-11-05T03:50:21.337Z,16.12
2022-11-05T03:53:29.207Z,16.18
2022-11-05T03:56:38.895Z,15.95
2022-11-05T03:59:45.158Z,16.03
2022-11-05T04:02:48.642Z,16.01
2022-11-05T04:06:13.833Z,15.84
2022-11-05T04:09:35.130Z,15.77
2022-11-05T04:12:56.054Z,15.91
2022-11-05T04:16:16.625Z,15.97
2022-11-05T04:19:41.581Z,15.95
2022-11-05T04:23:03.696Z,15.79
2022-11-05T04:26:07.508Z,15.92
2022-11-05T04:29:37.085Z,15.87
2022-11-05T04:32:40.907Z,15.88
2022-11-05T04:35:46.270Z,15.83
2022-11-05T04:38:51.391Z,15.81
2022-11-05T04:41:54.743Z,15.90
2022-11-05T04:44:59.556Z,15.90
2022-11-05T04:48:03.677Z,15.96
2022-11-05T04:51:07.767Z,15.88
2022-11-05T04:54:12.601Z,15.66
2022-11-05T04:57:16.294Z,15.72
2022-11-05T05:00:21.082Z,15.70
2022-11-05T05:03:24.745Z,15.41
2022-11-05T05:06:28.325Z,15.24
2022-11-05T05:09:33.517Z,15.24
2022-11-05T05:12:36.891Z,15.16
2022-11-05T05:15:40.590Z,15.17
2022-11-05T05:18:46.409Z,15.20
2022-11-05T05:21:49.315Z,15.14
2022-11-05T05:24:54.390Z,14.94
2022-11-05T05:27:58.687Z,14.86
2022-11-05T05:31:02.328Z,15.16
2022-11-05T05:34:07.200Z,15.31
2022-11-05T05:37:10.535Z,15.22
2022-11-05T05:40:15.655Z,15.39
2022-11-05T05:43:19.146Z,15.49
2022-11-05T05:46:22.850Z,15.61
2022-11-05T05:49:26.191Z,15.61
2022-11-05T05:52:29.812Z,15.60
2022-11-05T05:55:34.630Z,15.45
2022-11-05T05:58:40.467Z,15.34
2022-11-05T06:01:44.094Z,15.50
2022-11-05T06:04:48.953Z,15.49
2022-11-05T06:07:57.130Z,15.54
2022-11-05T06:11:03.726Z,15.46
2022-11-05T06:14:07.341Z,15.33
2022-11-05T06:17:11.396Z,15.33
2022-11-05T06:20:14.815Z,15.41
2022-11-05T06:23:18.698Z,15.54
2022-11-05T06:26:23.700Z,15.44
2022-11-05T06:29:27.479Z,15.38
2022-11-05T06:32:32.132Z,15.41
2022-11-05T06:35:36.116Z,15.41
2022-11-05T06:38:39.855Z,15.49
2022-11-05T06:42:11.884Z,15.49
2022-11-05T06:45:10.590Z,15.64
2022-11-05T06:48:14.512Z,15.63
2022-11-05T06:51:18.073Z,15.79
2022-11-05T06:54:22.414Z,15.92
2022-11-05T06:57:27.735Z,15.86
2022-11-05T07:00:32.077Z,16.04
2022-11-05T07:03:36.454Z,16.09
2022-11-05T07:06:40.458Z,16.20
2022-11-05T07:09:44.884Z,16.34
2022-11-05T07:12:50.425Z,16.38
2022-11-05T07:16:12.579Z,16.35
2022-11-05T07:19:16.571Z,16.47
2022-11-05T07:22:20.041Z,16.59
2022-11-05T07:25:24.258Z,16.61
2022-11-05T07:28:29.105Z,16.68
2022-11-05T07:31:32.838Z,16.78
2022-11-05T07:34:36.439Z,16.86
2022-11-05T07:37:44.939Z,16.85
2022-11-05T07:40:48.356Z,16.93
2022-11-05T07:43:53.569Z,17.03
2022-11-05T07:47:00.806Z,16.84
2022-11-05T07:50:05.863Z,16.76
2022-11-05T07:53:12.624Z,16.99
2022-11-05T07:56:16.648Z,17.02
2022-11-05T07:59:21.602Z,17.02
2022-11-05T08:02:26.729Z,17.07
2022-11-05T08:05:31.934Z,17.11
2022-11-05T08:08:35.645Z,17.19
2022-11-05T08:11:40.036Z,17.23
2022-11-05T08:14:48.306Z,17.35
2022-11-05T08:17:52.237Z,17.40
2022-11-05T08:20:56.090Z,17.38
2022-11-05T08:23:59.661Z,17.40
2022-11-05T08:27:03.863Z,17.50
2022-11-05T08:30:10.794Z,17.51
2022-11-05T08:33:25.553Z,17.52
2022-11-05T08:36:29.294Z,17.57
2022-11-05T08:39:33.036Z,17.55
2022-11-05T08:42:37.317Z,17.60
2022-11-05T08:45:43.670Z,17.63
2022-11-05T08:48:47.401Z,17.59
2022-11-05T08:51:51.414Z,17.52
2022-11-05T08:54:55.874Z,17.42
2022-11-05T08:58:02.149Z,17.42
2022-11-05T09:01:10.041Z,17.44
2022-11-05T09:04:16.129Z,17.37
2022-11-05T09:07:19.811Z,17.45
2022-11-05T09:10:24.349Z,17.51
2022-11-05T09:13:28.111Z,17.56
2022-11-05T09:16:36.810Z,17.63
2022-11-05T09:19:40.365Z,17.67
2022-11-05T09:22:45.105Z,17.72
2022-11-05T09:25:52.702Z,17.76
2022-11-05T09:28:57.027Z,17.48
2022-11-05T09:32:03.367Z,17.20
2022-11-05T09:35:08.370Z,16.86
2022-11-05T09:38:13.342Z,16.71
2022-11-05T09:41:28.022Z,16.53
2022-11-05T09:44:41.648Z,16.62
2022-11-05T09:47:54.674Z,16.65
2022-11-05T09:50:59.726Z,16.66
2022-11-05T09:54:06.195Z,16.58
2022-11-05T09:57:15.585Z,16.58
2022-11-05T10:00:20.162Z,16.59
2022-11-05T10:03:26.845Z,16.54
2022-11-05T10:06:32.163Z,16.56
2022-11-05T10:09:40.943Z,16.70
2022-11-05T10:12:49.098Z,16.54
2022-11-05T10:16:01.597Z,16.61
2022-11-05T10:19:10.997Z,16.61
2022-11-05T10:22:17.321Z,16.58
2022-11-05T10:25:23.249Z,16.45
2022-11-05T10:28:28.282Z,16.54
2022-11-05T10:31:37.381Z,16.61
2022-11-05T10:34:43.612Z,16.64
2022-11-05T10:37:48.018Z,16.67
2022-11-05T10:41:01.461Z,16.64
2022-11-05T10:44:29.523Z,16.70
2022-11-05T10:48:05.484Z,16.06
2022-11-05T10:51:11.274Z,16.44
2022-11-05T10:54:20.785Z,16.50
2022-11-05T10:57:35.091Z,16.49
2022-11-05T11:00:38.993Z,16.64
2022-11-05T11:03:45.682Z,16.72
2022-11-05T11:06:52.754Z,16.66
2022-11-05T11:09:56.564Z,16.73
2022-11-05T11:13:00.377Z,16.54
2022-11-05T11:16:16.329Z,16.64
2022-11-05T11:19:31.314Z,16.33
2022-11-05T11:22:39.601Z,16.37
2022-11-05T11:25:54.040Z,16.14
2022-11-05T11:29:01.981Z,16.07
2022-11-05T11:32:05.780Z,15.92
2022-11-05T11:35:21.519Z,15.79
2022-11-05T11:38:30.809Z,15.45
2022-11-05T11:41:39.661Z,15.24
2022-11-05T11:44:46.320Z,15.30
2022-11-05T11:47:51.450Z,14.71
2022-11-05T11:50:56.182Z,14.55
2022-11-05T11:54:02.758Z,14.24
2022-11-05T11:57:22.499Z,14.13
2022-11-05T12:00:27.510Z,14.09
2022-11-05T12:03:36.949Z,13.97
2022-11-05T12:06:49.120Z,13.66
2022-11-05T12:10:11.453Z,13.69
2022-11-05T12:13:36.727Z,13.80
2022-11-05T12:17:09.634Z,13.92
2022-11-05T12:20:42.080Z,13.94
2022-11-05T12:24:01.409Z,14.08
2022-11-05T12:27:23.236Z,13.57
2022-11-05T12:30:27.087Z,13.92
2022-11-05T12:34:02.337Z,13.98
2022-11-05T12:37:23.719Z,13.85
2022-11-05T12:40:57.129Z,14.21
2022-11-05T12:44:16.934Z,14.25
2022-11-05T12:47:37.967Z,14.34
2022-11-05T12:50:49.393Z,14.14
2022-11-05T12:54:02.345Z,14.09
2022-11-05T12:57:09.360Z,14.18
2022-11-05T13:00:21.917Z,14.09
2022-11-05T13:03:39.658Z,14.11
2022-11-05T13:06:52.829Z,14.25
2022-11-05T13:10:04.537Z,14.34
2022-11-05T13:13:15.327Z,14.06
2022-11-05T13:16:28.303Z,14.29
2022-11-05T13:19:37.481Z,14.09
2022-11-05T13:22:45.683Z,13.54
2022-11-05T13:25:53.978Z,13.53
2022-11-05T13:29:05.903Z,13.76
2022-11-05T13:32:21.050Z,13.45
2022-11-05T13:35:29.370Z,13.53
2022-11-05T13:38:51.806Z,13.68
2022-11-05T13:42:26.697Z,13.77
2022-11-05T13:46:29.738Z,13.58
2022-11-05T13:50:00.436Z,13.44
2022-11-05T13:53:33.739Z,13.71
2022-11-05T13:56:57.515Z,13.82
2022-11-05T14:00:12.880Z,13.45
2022-11-05T14:03:22.232Z,13.05
2022-11-05T14:06:30.659Z,12.76
2022-11-05T14:09:37.951Z,12.94
2022-11-05T14:12:42.879Z,12.23
2022-11-05T14:16:04.132Z,12.42
2022-11-05T14:19:44.914Z,12.62
2022-11-05T14:22:50.383Z,13.06
2022-11-05T14:25:59.766Z,13.12
2022-11-05T14:29:27.388Z,12.99
2022-11-05T14:32:45.169Z,12.73
2022-11-05T14:35:48.643Z,12.76
2022-11-05T14:39:01.392Z,12.76
2022-11-05T14:42:13.443Z,12.40
2022-11-05T14:45:28.485Z,12.68
2022-11-05T14:48:40.432Z,12.59
2022-11-05T14:51:47.066Z,12.56
2022-11-05T14:54:55.917Z,12.64
2022-11-05T14:58:28.320Z,12.58
2022-11-05T15:01:54.765Z,12.64
2022-11-05T15:05:35.188Z,12.95
2022-11-05T15:08:53.322Z,12.65
2022-11-05T15:12:09.190Z,13.06
2022-11-05T15:15:22.470Z,13.12
2022-11-05T15:18:48.379Z,12.82
2022-11-05T15:21:54.385Z,12.88
2022-11-05T15:24:58.612Z,12.76
2022-11-05T15:28:11.280Z,12.37
2022-11-05T15:31:27.617Z,12.58
2022-11-05T15:34:33.398Z,12.74
2022-11-05T15:37:37.361Z,12.76
2022-11-05T15:41:02.072Z,12.73
2022-11-05T15:44:07.376Z,12.93
2022-11-05T15:47:18.963Z,12.42
2022-11-05T15:50:22.836Z,12.29
2022-11-05T15:53:51.502Z,12.05
2022-11-05T15:57:01.649Z,12.05
2022-11-05T16:00:16.708Z,11.86
2022-11-05T16:03:29.381Z,11.71
2022-11-05T16:06:40.490Z,11.79
2022-11-05T16:09:52.779Z,11.80
2022-11-05T16:12:56.421Z,12.03
2022-11-05T16:16:04.194Z,11.88
2022-11-05T16:19:40.132Z,11.74
2022-11-05T16:22:48.445Z,11.74
2022-11-05T16:25:52.374Z,12.24
2022-11-05T16:28:56.794Z,12.38
2022-11-05T16:32:04.294Z,12.00
2022-11-05T16:35:18.103Z,12.13
2022-11-05T16:38:22.163Z,12.25
2022-11-05T16:41:27.497Z,12.20
2022-11-05T16:44:34.210Z,12.24
2022-11-05T16:47:39.457Z,12.10
2022-11-05T16:50:43.848Z,11.89
2022-11-05T16:53:48.460Z,11.80
2022-11-05T16:56:51.837Z,11.90
2022-11-05T16:59:57.058Z,11.90
2022-11-05T17:03:01.917Z,11.98
2022-11-05T17:06:06.207Z,12.40
2022-11-05T17:09:09.659Z,12.11
2022-11-05T17:12:13.661Z,12.42
2022-11-05T17:15:19.713Z,12.30
2022-11-05T17:18:25.656Z,12.40
2022-11-05T17:21:29.458Z,12.05
2022-11-05T17:24:33.119Z,12.33
2022-11-05T17:27:36.594Z,12.08
2022-11-05T17:30:41.860Z,12.39
2022-11-05T17:33:47.019Z,12.14
2022-11-05T17:36:50.996Z,12.59
2022-11-05T17:39:54.367Z,12.33
2022-11-05T17:42:58.129Z,12.72
2022-11-05T17:46:04.482Z,12.74
2022-11-05T17:49:10.171Z,12.75
2022-11-05T17:52:32.355Z,12.62
2022-11-05T17:55:36.427Z,12.46
2022-11-05T17:58:58.155Z,12.47
2022-11-05T18:02:02.121Z,12.52
2022-11-05T18:05:08.195Z,12.70
2022-11-05T18:08:12.773Z,12.52
2022-11-05T18:11:16.489Z,12.41
2022-11-05T18:14:24.065Z,12.37
2022-11-05T18:17:28.021Z,12.46
2022-11-05T18:20:33.034Z,12.38
2022-11-05T18:23:36.487Z,12.67
2022-11-05T18:26:40.146Z,12.68
2022-11-05T18:29:43.499Z,12.46
2022-11-05T18:32:48.045Z,12.40
2022-11-05T18:35:52.953Z,11.52
2022-11-05T18:38:58.586Z,11.57
2022-11-05T18:42:01.907Z,11.82
2022-11-05T18:45:06.748Z,11.39
2022-11-05T18:48:11.522Z,11.38
2022-11-05T18:51:16.922Z,11.78
2022-11-05T18:54:20.442Z,11.62
2022-11-05T18:57:24.465Z,12.03
2022-11-05T19:00:27.942Z,12.12
2022-11-05T19:03:31.970Z,12.21
2022-11-05T19:06:37.830Z,12.34
2022-11-05T19:09:41.732Z,12.35
2022-11-05T19:12:45.046Z,12.20
2022-11-05T19:15:48.656Z,12.11
2022-11-05T19:18:52.199Z,12.08
2022-11-05T19:21:57.812Z,12.39
2022-11-05T19:25:01.367Z,12.05
2022-11-05T19:28:05.866Z,12.25
2022-11-05T19:31:11.945Z,12.21
2022-11-05T19:34:17.091Z,12.31
2022-11-05T19:37:21.878Z,12.18
2022-11-05T19:40:25.570Z,12.13
2022-11-05T19:43:29.142Z,12.42
2022-11-05T19:46:33.954Z,12.64
2022-11-05T19:49:37.410Z,12.76
2022-11-05T19:52:42.540Z,12.77
2022-11-05T19:55:46.070Z,12.92
2022-11-05T19:59:08.444Z,12.97
2022-11-05T20:02:16.182Z,13.13
2022-11-05T20:05:20.425Z,13.08
2022-11-05T20:08:25.201Z,13.10
2022-11-05T20:11:28.972Z,13.04
2022-11-05T20:14:33.302Z,12.79
2022-11-05T20:17:39.186Z,12.97
2022-11-05T20:20:42.605Z,12.88
2022-11-05T20:23:48.485Z,13.10
2022-11-05T20:26:52.077Z,13.13
2022-11-05T20:29:55.751Z,12.80
2022-11-05T20:32:59.481Z,12.70
2022-11-05T20:36:05.333Z,12.22
2022-11-05T20:39:12.040Z,12.56
2022-11-05T20:42:15.779Z,12.62
2022-11-05T20:45:19.470Z,12.36
2022-11-05T20:48:23.089Z,12.46
2022-11-05T20:51:26.523Z,12.70
2022-11-05T20:54:31.573Z,12.84
2022-11-05T20:57:35.046Z,12.94
2022-11-05T21:00:39.178Z,13.09
2022-11-05T21:03:42.493Z,13.14
2022-11-05T21:06:46.121Z,13.13
2022-11-05T21:09:51.115Z,13.25
2022-11-05T21:12:54.818Z,13.12
2022-11-05T21:15:59.976Z,13.26
2022-11-05T21:19:03.675Z,12.92
2022-11-05T21:22:07.862Z,12.94
2022-11-05T21:25:14.202Z,12.94
2022-11-05T21:28:17.773Z,13.16
2022-11-05T21:31:21.479Z,12.74
2022-11-05T21:34:25.278Z,12.89
2022-11-05T21:37:29.199Z,12.92
2022-11-05T21:40:34.073Z,13.02
2022-11-05T21:43:39.466Z,13.12
2022-11-05T21:46:42.945Z,12.98
2022-11-05T21:49:46.963Z,13.12
2022-11-05T21:53:08.534Z,12.91
2022-11-05T21:56:36.892Z,12.84
2022-11-05T21:59:51.409Z,12.91
2022-11-05T22:02:55.315Z,12.76
2022-11-05T22:05:58.723Z,13.02
2022-11-05T22:09:02.519Z,12.62
2022-11-05T22:12:07.727Z,12.74
2022-11-05T22:15:12.102Z,12.83
2022-11-05T22:18:15.709Z,12.47
2022-11-05T22:21:20.046Z,12.75
2022-11-05T22:24:24.226Z,12.53
2022-11-05T22:27:29.506Z,12.66
2022-11-05T22:30:34.567Z,12.86
2022-11-05T22:33:38.418Z,12.70
2022-11-05T22:36:42.225Z,12.98
2022-11-05T22:39:46.229Z,12.96
2022-11-05T22:42:51.094Z,13.10
2022-11-05T22:45:54.757Z,13.19
2022-11-05T22:48:58.538Z,13.27
2022-11-05T22:52:02.254Z,13.16
2022-11-05T22:55:06.336Z,12.88
2022-11-05T22:58:11.939Z,12.91
2022-11-05T23:01:16.349Z,12.92
2022-11-05T23:04:20.348Z,12.69
2022-11-05T23:07:40.838Z,12.64
2022-11-05T23:11:02.196Z,12.45
2022-11-05T23:14:08.449Z,12.46
2022-11-05T23:17:29.283Z,12.76
2022-11-05T23:20:49.826Z,12.93
2022-11-05T23:24:05.248Z,12.83
2022-11-05T23:27:08.785Z,13.06
2022-11-05T23:30:18.545Z,13.10
2022-11-05T23:33:20.987Z,13.23
2022-11-05T23:36:42.077Z,13.24
2022-11-05T23:39:45.565Z,13.18
2022-11-05T23:43:07.274Z,13.36
2022-11-05T23:46:34.791Z,13.36
2022-11-05T23:49:38.512Z,13.18
2022-11-05T23:52:41.914Z,13.11
2022-11-05T23:55:45.707Z,12.54
2022-11-05T23:58:49.040Z,12.28
